Time;durP1;ratioP1;P1;durP2;ratioP2;P2;SDS_P1;SDS_P2;PMS_P1;PMS_P2;Temp;Humidity;BMP_temperature;BMP_pressure;BME280_temperature;BME280_humidity;BME280_pressure;Samples;Min_cycle;Max_cycle;Signal;HPM_P1;HPM_P2
2022/08/19 00:01:44;;;;;;;4.05;2.90;;;17.60;99.90;;;;;;5072707;28;20040;-76
2022/08/19 00:04:12;;;;;;;3.35;2.40;;;17.60;99.90;;;;;;5072389;28;20043;-76
2022/08/19 00:06:40;;;;;;;2.97;2.40;;;17.60;99.90;;;;;;5071773;28;20036;-75
2022/08/19 00:09:09;;;;;;;3.35;2.33;;;17.60;99.90;;;;;;5072513;28;20583;-76
2022/08/19 00:11:37;;;;;;;3.08;2.67;;;17.70;99.90;;;;;;5069303;28;20508;-74
2022/08/19 00:14:04;;;;;;;3.13;2.58;;;17.70;99.90;;;;;;5070769;28;20036;-76
2022/08/19 00:16:30;;;;;;;3.67;2.20;;;17.60;99.90;;;;;;5071028;28;20037;-71
2022/08/19 00:18:56;;;;;;;9.20;2.65;;;17.50;99.90;;;;;;5071744;28;20041;-76
2022/08/19 00:21:23;;;;;;;3.08;2.38;;;17.60;99.90;;;;;;5072330;28;20515;-70
2022/08/19 00:23:48;;;;;;;3.38;2.45;;;17.50;99.90;;;;;;5072355;28;20098;-76
2022/08/19 00:26:14;;;;;;;2.40;2.03;;;17.50;99.90;;;;;;5072367;28;20040;-75
2022/08/19 00:28:40;;;;;;;3.75;2.55;;;17.40;99.90;;;;;;5072513;28;20040;-75
2022/08/19 00:31:08;;;;;;;3.38;2.10;;;17.50;99.90;;;;;;5072370;28;20080;-71
2022/08/19 00:33:35;;;;;;;2.80;2.08;;;17.40;99.90;;;;;;5072219;28;20048;-76
2022/08/19 00:36:06;;;;;;;3.05;2.35;;;17.50;99.90;;;;;;5072058;28;20043;-76
2022/08/19 00:38:34;;;;;;;3.40;2.50;;;17.40;99.90;;;;;;5071747;28;20399;-75
2022/08/19 00:40:59;;;;;;;2.90;2.10;;;17.40;99.90;;;;;;5075578;28;20503;-77
2022/08/19 00:43:26;;;;;;;4.13;2.25;;;17.50;99.90;;;;;;5075896;28;20125;-76
2022/08/19 00:45:53;;;;;;;3.58;1.95;;;17.40;99.90;;;;;;5075881;28;20434;-75
2022/08/19 00:48:20;;;;;;;3.35;2.20;;;17.40;99.90;;;;;;5075789;28;20044;-76
2022/08/19 00:50:48;;;;;;;4.22;2.05;;;17.40;99.90;;;;;;5075695;28;20101;-76
2022/08/19 00:53:18;;;;;;;3.40;1.95;;;17.40;99.90;;;;;;5075631;28;20064;-76
2022/08/19 00:55:49;;;;;;;3.90;2.15;;;17.40;99.90;;;;;;5075698;28;20495;-75
2022/08/19 00:58:18;;;;;;;7.72;2.33;;;17.40;99.90;;;;;;5075347;28;20067;-76
2022/08/19 01:00:45;;;;;;;2.97;2.17;;;17.40;99.90;;;;;;5075218;28;20090;-77
2022/08/19 01:03:14;;;;;;;2.40;2.00;;;17.50;99.90;;;;;;5075361;28;20032;-76
2022/08/19 01:05:42;;;;;;;4.15;2.17;;;17.40;99.90;;;;;;5075513;28;20071;-73
2022/08/19 01:08:09;;;;;;;3.33;2.10;;;17.40;99.90;;;;;;5075392;28;20044;-76
2022/08/19 01:10:40;;;;;;;2.75;1.92;;;17.40;99.90;;;;;;5075123;28;20055;-76
2022/08/19 01:13:06;;;;;;;2.85;2.10;;;17.40;99.90;;;;;;5073894;28;20097;-76
2022/08/19 01:15:38;;;;;;;3.42;2.10;;;17.50;99.90;;;;;;5074915;28;20040;-68
2022/08/19 01:18:07;;;;;;;4.15;2.25;;;17.50;99.90;;;;;;5075231;28;20040;-75
2022/08/19 01:20:34;;;;;;;2.13;1.58;;;17.40;99.90;;;;;;5075315;28;20044;-76
2022/08/19 01:23:00;;;;;;;2.38;1.92;;;17.40;99.90;;;;;;5075221;28;20037;-75
2022/08/19 01:25:50;;;;;;;3.08;1.77;;;17.40;99.90;;;;;;5075046;28;20025;-75
2022/08/19 01:28:19;;;;;;;3.03;2.00;;;17.40;99.90;;;;;;5074790;28;20439;-75
2022/08/19 01:30:46;;;;;;;2.92;1.83;;;17.30;99.90;;;;;;5073295;28;20492;-75
2022/08/19 01:33:12;;;;;;;3.25;2.05;;;17.40;99.90;;;;;;5074769;28;20112;-75
2022/08/19 01:35:38;;;;;;;2.72;1.63;;;17.40;99.90;;;;;;5074767;28;20045;-75
2022/08/19 01:38:08;;;;;;;2.55;1.80;;;17.30;99.90;;;;;;5074816;28;20629;-74
2022/08/19 01:40:37;;;;;;;3.10;2.08;;;17.40;99.90;;;;;;5074633;28;20048;-74
2022/08/19 01:43:05;;;;;;;4.83;2.07;;;17.40;99.90;;;;;;5074671;28;20106;-75
2022/08/19 01:45:34;;;;;;;2.22;1.67;;;17.40;99.90;;;;;;5073143;28;20048;-67
2022/08/19 01:48:00;;;;;;;2.25;1.90;;;17.30;99.90;;;;;;5066759;28;20041;-74
2022/08/19 01:50:27;;;;;;;2.33;1.50;;;17.30;99.90;;;;;;5051172;28;20051;-72
2022/08/19 01:52:53;;;;;;;2.55;1.83;;;17.30;99.90;;;;;;5054151;28;20041;-73
2022/08/19 01:55:20;;;;;;;3.47;2.00;;;17.30;99.90;;;;;;5053996;28;20048;-74
2022/08/19 01:57:51;;;;;;;2.78;1.48;;;17.30;99.90;;;;;;5054430;28;20037;-74
2022/08/19 02:00:18;;;;;;;;;;;17.40;99.90;;;;;;5054933;28;20033;-74
2022/08/19 02:02:44;;;;;;;1.95;1.60;;;17.30;99.90;;;;;;5054421;28;19913;-73
2022/08/19 02:05:12;;;;;;;3.60;1.48;;;17.30;99.90;;;;;;5053514;28;20156;-68
2022/08/19 02:07:39;;;;;;;3.25;1.77;;;17.30;99.90;;;;;;5052174;28;20041;-70
2022/08/19 02:10:09;;;;;;;1.60;1.38;;;17.30;99.90;;;;;;5052216;28;20106;-68
2022/08/19 02:12:35;;;;;;;3.80;1.55;;;17.30;99.90;;;;;;5052258;28;20043;-72
2022/08/19 02:15:02;;;;;;;1.95;1.65;;;17.30;99.90;;;;;;5052300;28;20076;-72
2022/08/19 02:17:29;;;;;;;1.92;1.60;;;17.30;99.90;;;;;;5052228;28;20099;-67
2022/08/19 02:19:58;;;;;;;1.30;1.17;;;17.30;99.90;;;;;;5052569;28;20076;-72
2022/08/19 02:22:25;;;;;;;2.20;1.67;;;17.30;99.90;;;;;;5053916;28;20127;-72
2022/08/19 02:24:52;;;;;;;2.22;1.88;;;17.30;99.90;;;;;;5053565;28;20123;-72
2022/08/19 02:27:18;;;;;;;1.75;1.40;;;17.30;99.90;;;;;;5053681;28;20400;-72
2022/08/19 02:29:46;;;;;;;2.08;1.50;;;17.30;99.90;;;;;;5053894;28;20041;-72
2022/08/19 02:32:13;;;;;;;3.83;1.45;;;17.30;99.90;;;;;;5053818;28;20542;-72
2022/08/19 02:34:39;;;;;;;2.50;1.40;;;17.30;99.90;;;;;;5053743;28;20047;-71
2022/08/19 02:37:05;;;;;;;2.67;1.38;;;17.30;99.90;;;;;;5053758;28;20037;-71
2022/08/19 02:39:31;;;;;;;4.78;1.60;;;17.40;99.90;;;;;;5053737;28;20040;-71
2022/08/19 02:41:59;;;;;;;2.10;1.52;;;17.40;99.90;;;;;;5052251;28;20087;-71
2022/08/19 02:44:25;;;;;;;3.05;1.42;;;17.40;99.90;;;;;;5060314;28;20129;-71
2022/08/19 02:46:50;;;;;;;2.70;1.45;;;17.40;99.90;;;;;;5073652;28;20082;-71
2022/08/19 02:49:16;;;;;;;2.67;1.67;;;17.30;99.90;;;;;;5073509;28;20048;-67
2022/08/19 02:51:44;;;;;;;1.70;1.50;;;17.40;99.90;;;;;;5073457;28;20037;-71
2022/08/19 02:54:12;;;;;;;3.15;1.92;;;17.30;99.90;;;;;;5073122;28;20479;-70
2022/08/19 02:56:40;;;;;;;4.57;1.42;;;17.40;99.90;;;;;;5073108;28;20044;-71
2022/08/19 02:59:11;;;;;;;3.03;1.88;;;17.30;99.90;;;;;;5072059;28;20037;-71
2022/08/19 03:01:40;;;;;;;5.85;2.10;;;17.40;99.90;;;;;;5073189;28;20064;-71
2022/08/19 03:04:06;;;;;;;2.95;2.10;;;17.30;99.90;;;;;;5073082;28;20123;-71
2022/08/19 03:06:35;;;;;;;2.72;1.77;;;17.30;99.90;;;;;;5072932;28;20068;-71
2022/08/19 03:09:02;;;;;;;3.30;1.85;;;17.30;99.90;;;;;;5071777;28;20036;-69
2022/08/19 03:11:30;;;;;;;2.78;2.25;;;17.30;99.90;;;;;;5070667;28;20063;-70
2022/08/19 03:13:57;;;;;;;2.85;2.17;;;17.30;99.90;;;;;;5072273;28;20068;-71
2022/08/19 03:16:25;;;;;;;3.80;2.10;;;17.30;99.90;;;;;;5071982;28;20102;-69
2022/08/19 03:18:52;;;;;;;3.90;2.75;;;17.30;99.90;;;;;;5073306;28;20043;-70
2022/08/19 03:21:21;;;;;;;3.90;2.40;;;17.30;99.90;;;;;;5073212;28;20075;-71
2022/08/19 03:23:47;;;;;;;3.35;2.38;;;17.30;99.90;;;;;;5072975;28;20040;-67
2022/08/19 03:26:16;;;;;;;3.47;2.75;;;17.30;99.90;;;;;;5072987;28;20064;-70
2022/08/19 03:28:43;;;;;;;4.38;2.50;;;17.30;99.90;;;;;;5072774;28;20044;-71
2022/08/19 03:31:12;;;;;;;2.92;2.38;;;17.30;99.90;;;;;;5072550;28;20140;-70
2022/08/19 03:33:38;;;;;;;4.32;2.70;;;17.30;99.90;;;;;;5072929;28;20458;-71
2022/08/19 03:36:22;;;;;;;5.25;2.58;;;17.30;99.90;;;;;;5072919;28;20033;-70
2022/08/19 03:39:00;;;;;;;3.22;2.47;;;17.30;99.90;;;;;;5072764;28;20064;-70
2022/08/19 03:41:30;;;;;;;3.67;2.58;;;17.30;99.90;;;;;;5072556;28;20048;-71
2022/08/19 03:43:57;;;;;;;4.93;2.40;;;17.30;99.90;;;;;;5071258;28;20041;-71
2022/08/19 03:46:29;;;;;;;10.80;3.03;;;17.30;99.90;;;;;;5072560;28;20097;-70
2022/08/19 03:48:56;;;;;;;3.70;2.63;;;17.30;99.90;;;;;;5072784;28;20129;-71
2022/08/19 03:51:32;;;;;;;4.72;2.58;;;17.30;99.90;;;;;;5072790;28;20201;-71
2022/08/19 03:54:00;;;;;;;4.63;3.08;;;17.40;99.90;;;;;;5072630;28;20508;-70
2022/08/19 03:56:30;;;;;;;3.63;2.78;;;17.30;99.90;;;;;;5072804;28;20044;-71
2022/08/19 03:58:57;;;;;;;3.38;2.42;;;17.40;99.90;;;;;;5072634;28;20123;-71
2022/08/19 04:01:28;;;;;;;5.35;2.40;;;17.30;99.90;;;;;;5072662;28;20044;-68
2022/08/19 04:03:56;;;;;;;5.38;3.22;;;17.30;99.90;;;;;;5072735;28;20526;-70
2022/08/19 04:06:31;;;;;;;3.75;2.75;;;17.30;99.90;;;;;;5072584;28;20075;-71
2022/08/19 04:09:01;;;;;;;4.20;2.90;;;17.30;99.90;;;;;;5072625;28;20044;-70
2022/08/19 04:11:41;;;;;;;7.40;3.22;;;17.40;99.90;;;;;;5072447;28;20056;-71
2022/08/19 04:14:07;;;;;;;3.75;2.80;;;17.40;99.90;;;;;;5074508;28;20051;-70
2022/08/19 04:16:34;;;;;;;4.35;2.80;;;17.40;99.90;;;;;;5076348;28;20826;-71
2022/08/19 04:19:01;;;;;;;4.13;2.60;;;17.40;99.90;;;;;;5075990;28;20044;-70
2022/08/19 04:21:28;;;;;;;7.10;2.58;;;17.40;99.90;;;;;;5076010;28;20035;-71
2022/08/19 04:23:55;;;;;;;4.90;2.75;;;17.40;99.90;;;;;;5076272;28;20063;-67
2022/08/19 04:26:24;;;;;;;4.28;3.15;;;17.30;99.90;;;;;;5076294;28;20605;-70
2022/08/19 04:28:51;;;;;;;5.38;2.70;;;17.30;99.90;;;;;;5076166;28;20098;-70
2022/08/19 04:31:20;;;;;;;5.40;2.50;;;17.40;99.90;;;;;;5076269;28;20442;-71
2022/08/19 04:33:46;;;;;;;4.75;3.03;;;17.40;99.90;;;;;;5075899;28;20032;-71
2022/08/19 04:36:21;;;;;;;3.85;2.55;;;17.40;99.90;;;;;;5075922;28;20047;-71
2022/08/19 04:38:54;;;;;;;4.25;2.75;;;17.40;99.90;;;;;;5075849;28;20041;-71
2022/08/19 04:44:04;;;;;;;4.90;2.78;;;17.30;99.90;;;;;;5075847;28;20125;-71
2022/08/19 04:46:31;;;;;;;4.63;2.83;;;17.50;99.90;;;;;;5075873;28;20499;-70
2022/08/19 04:48:58;;;;;;;6.07;2.85;;;17.40;99.90;;;;;;5075741;28;20032;-71
2022/08/19 04:51:24;;;;;;;4.50;3.08;;;17.50;99.90;;;;;;5075682;28;20519;-70
2022/08/19 04:53:52;;;;;;;6.13;3.05;;;17.50;99.90;;;;;;5074409;28;20048;-67
2022/08/19 04:56:22;;;;;;;3.65;2.70;;;17.50;99.90;;;;;;5057477;28;20496;-70
2022/08/19 04:58:51;;;;;;;3.92;2.85;;;17.50;99.90;;;;;;5075538;28;20123;-71
2022/08/19 05:01:32;;;;;;;4.22;2.95;;;17.50;99.90;;;;;;5075584;28;20059;-71
2022/08/19 05:03:58;;;;;;;;;;;17.50;99.90;;;;;;5074921;28;20044;-71
2022/08/19 05:06:25;;;;;;;4.25;3.00;;;17.50;99.90;;;;;;5075589;28;19914;-70
2022/08/19 05:08:51;;;;;;;4.40;2.70;;;17.50;99.90;;;;;;5075406;28;20101;-68
2022/08/19 05:11:20;;;;;;;4.78;3.35;;;17.40;99.90;;;;;;5075331;28;20139;-67
2022/08/19 05:13:48;;;;;;;4.38;3.00;;;17.40;99.90;;;;;;5075335;28;20044;-70
2022/08/19 05:16:15;;;;;;;5.97;3.47;;;17.40;99.90;;;;;;5075283;28;20077;-71
2022/08/19 05:24:14;;;;;;;5.13;3.33;;;17.40;99.90;;;;;;5075280;28;20038;-65
2022/08/19 05:26:45;;;;;;;6.03;3.35;;;17.40;99.90;;;;;;5075159;28;20041;-71
2022/08/19 05:29:11;;;;;;;6.13;3.70;;;17.40;99.90;;;;;;5074534;28;20040;-68
2022/08/19 05:31:38;;;;;;;5.43;4.00;;;17.40;99.90;;;;;;5074465;28;20048;-70
2022/08/19 05:34:05;;;;;;;5.57;3.92;;;17.40;99.90;;;;;;5073952;28;20047;-71
2022/08/19 05:36:39;;;;;;;5.60;3.15;;;17.40;99.90;;;;;;5073794;28;20666;-66
2022/08/19 05:39:06;;;;;;;7.43;3.78;;;17.40;99.90;;;;;;5072947;28;20037;-69
2022/08/19 05:41:32;;;;;;;6.70;4.20;;;17.40;99.90;;;;;;5074242;28;20093;-68
2022/08/19 05:44:02;;;;;;;8.07;4.80;;;17.30;99.90;;;;;;5074500;28;20048;-71
2022/08/19 05:46:28;;;;;;;6.80;4.30;;;17.30;99.90;;;;;;5074497;28;20036;-71
2022/08/19 05:48:56;;;;;;;7.20;4.35;;;17.40;99.90;;;;;;5074690;28;20047;-68
2022/08/19 05:51:22;;;;;;;6.20;4.57;;;17.40;99.90;;;;;;5071295;28;20056;-70
2022/08/19 05:53:49;;;;;;;7.22;4.20;;;17.30;99.90;;;;;;5052244;28;20029;-70
2022/08/19 05:56:16;;;;;;;8.10;4.75;;;17.40;99.90;;;;;;5053229;28;20072;-71
2022/08/19 05:58:44;;;;;;;6.38;4.38;;;17.30;99.90;;;;;;5054365;28;20052;-67
2022/08/19 06:01:13;;;;;;;6.63;4.40;;;17.30;99.90;;;;;;5052911;28;20412;-71
2022/08/19 06:03:40;;;;;;;5.75;4.15;;;17.40;99.90;;;;;;5054280;28;20047;-71
2022/08/19 06:06:07;;;;;;;6.20;4.38;;;17.30;99.90;;;;;;5054353;28;20518;-71
2022/08/19 06:08:35;;;;;;;6.93;4.60;;;17.30;99.90;;;;;;5054102;28;20049;-71
2022/08/19 06:11:35;;;;;;;8.10;4.35;;;17.40;99.90;;;;;;5054007;28;20045;-70
2022/08/19 06:14:10;;;;;;;6.22;4.70;;;17.40;99.90;;;;;;5054081;28;20492;-70
2022/08/19 06:16:38;;;;;;;9.45;4.80;;;17.40;99.90;;;;;;5053986;28;20040;-70
2022/08/19 06:19:11;;;;;;;7.00;4.57;;;17.30;99.90;;;;;;5052769;28;20408;-70
2022/08/19 06:21:40;;;;;;;7.30;4.45;;;17.30;99.90;;;;;;5054009;28;20044;-71
2022/08/19 06:24:09;;;;;;;5.28;3.72;;;17.30;99.90;;;;;;5053724;28;20131;-71
2022/08/19 06:26:37;;;;;;;6.30;3.90;;;17.30;99.90;;;;;;5053895;28;20044;-70
2022/08/19 06:29:05;;;;;;;5.30;3.72;;;17.40;99.90;;;;;;5052386;28;20369;-70
2022/08/19 06:31:33;;;;;;;6.68;3.63;;;17.40;99.90;;;;;;5053449;28;20052;-69
2022/08/19 06:34:02;;;;;;;5.50;3.83;;;17.40;99.90;;;;;;5053769;28;20078;-70
2022/08/19 06:36:33;;;;;;;5.60;3.75;;;17.30;99.90;;;;;;5051929;28;20051;-69
2022/08/19 06:39:05;;;;;;;4.95;3.70;;;17.30;99.90;;;;;;5053628;28;20060;-71
2022/08/19 06:41:33;;;;;;;6.18;3.42;;;17.40;99.90;;;;;;5052154;28;20044;-73
2022/08/19 06:43:59;;;;;;;4.72;2.78;;;17.40;99.90;;;;;;5053360;28;20083;-73
2022/08/19 06:46:26;;;;;;;3.90;3.00;;;17.40;99.90;;;;;;5053378;28;20071;-75
2022/08/19 06:48:53;;;;;;;6.43;3.35;;;17.30;99.90;;;;;;5052147;28;20029;-75
2022/08/19 06:51:19;;;;;;;8.60;3.90;;;17.20;99.90;;;;;;5061896;28;20056;-69
2022/08/19 06:53:49;;;;;;;6.93;4.45;;;17.20;99.90;;;;;;5073443;28;20041;-74
2022/08/19 06:56:17;;;;;;;6.28;4.60;;;17.20;99.90;;;;;;5072121;28;20448;-73
2022/08/19 06:58:42;;;;;;;9.05;5.20;;;17.20;99.90;;;;;;5073315;28;20364;-74
2022/08/19 07:01:09;;;;;;;7.97;5.03;;;17.30;99.90;;;;;;5073261;28;20048;-74
2022/08/19 07:03:37;;;;;;;8.80;5.15;;;17.30;99.90;;;;;;5071896;28;20071;-73
2022/08/19 07:06:11;;;;;;;11.25;6.50;;;17.30;99.90;;;;;;5073190;28;20041;-74
2022/08/19 07:08:40;;;;;;;11.23;6.57;;;17.30;99.90;;;;;;5073290;28;20044;-74
2022/08/19 07:11:08;;;;;;;13.23;6.55;;;17.30;99.90;;;;;;5071890;28;20047;-74
2022/08/19 07:13:36;;;;;;;10.52;6.80;;;17.30;99.90;;;;;;5073236;28;20440;-75
2022/08/19 07:16:06;;;;;;;13.30;7.68;;;17.30;99.90;;;;;;5071763;28;20095;-74
2022/08/19 07:18:33;;;;;;;10.30;6.32;;;17.30;99.90;;;;;;5073099;28;20516;-74
2022/08/19 07:21:07;;;;;;;14.40;6.97;;;17.30;99.90;;;;;;5072952;28;20075;-74
2022/08/19 07:23:33;;;;;;;11.20;7.05;;;17.40;99.90;;;;;;5071610;28;20036;-74
2022/08/19 07:26:04;;;;;;;13.13;7.32;;;17.40;99.90;;;;;;5072853;28;20052;-74
2022/08/19 07:28:29;;;;;;;11.40;6.72;;;17.40;99.90;;;;;;5072952;28;20033;-75
2022/08/19 07:30:55;;;;;;;11.45;8.00;;;17.40;99.90;;;;;;5072993;28;20135;-71
2022/08/19 07:33:21;;;;;;;13.93;8.23;;;17.30;99.90;;;;;;5072968;28;20037;-73
2022/08/19 07:35:47;;;;;;;11.98;7.60;;;17.30;99.90;;;;;;5073039;28;20040;-73
2022/08/19 07:38:13;;;;;;;11.07;7.60;;;17.40;99.90;;;;;;5072980;28;20488;-73
2022/08/19 07:40:40;;;;;;;12.90;8.23;;;17.40;99.90;;;;;;5072886;28;20051;-74
2022/08/19 07:43:06;;;;;;;10.80;6.90;;;17.50;99.90;;;;;;5071579;28;20090;-72
2022/08/19 07:45:32;;;;;;;13.82;8.75;;;17.50;99.90;;;;;;5072924;28;20053;-71
2022/08/19 07:47:58;;;;;;;11.93;7.88;;;17.60;99.90;;;;;;5073021;28;20083;-72
2022/08/19 07:50:24;;;;;;;15.10;7.38;;;17.70;99.90;;;;;;5075982;28;20086;-70
2022/08/19 07:52:50;;;;;;;9.10;6.65;;;17.50;99.90;;;;;;5076702;28;20105;-71
2022/08/19 07:55:19;;;;;;;12.20;8.20;;;17.70;99.90;;;;;;5076513;28;20044;-71
2022/08/19 07:57:45;;;;;;;14.90;8.17;;;17.80;99.90;;;;;;5076358;28;20411;-68
2022/08/19 08:00:11;;;;;;;14.40;8.38;;;17.80;99.90;;;;;;5076357;28;20118;-68
2022/08/19 08:02:39;;;;;;;11.27;6.95;;;17.70;99.90;;;;;;5076531;28;20439;-71
2022/08/19 08:10:33;;;;;;;16.33;8.20;;;17.90;99.90;;;;;;5076060;28;20056;-72
2022/08/19 08:12:59;;;;;;;14.45;9.02;;;18.00;99.90;;;;;;5076369;28;20036;-71
2022/08/19 08:15:25;;;;;;;12.60;8.57;;;18.00;99.90;;;;;;5076420;28;20116;-72
2022/08/19 08:17:50;;;;;;;16.02;8.75;;;18.20;99.90;;;;;;5076398;28;20120;-70
2022/08/19 08:20:17;;;;;;;18.83;9.60;;;18.30;99.90;;;;;;5076421;28;20048;-67
2022/08/19 08:25:30;;;;;;;13.48;8.50;;;;;;;;;;5076128;28;20039;-70
2022/08/19 08:27:59;;;;;;;15.15;8.93;;;18.40;99.90;;;;;;5076020;28;20075;-68
2022/08/19 08:30:27;;;;;;;12.00;8.23;;;18.50;99.90;;;;;;5075880;28;20040;-70
2022/08/19 08:32:54;;;;;;;16.27;9.23;;;18.60;99.90;;;;;;5075939;28;20040;-69
2022/08/19 08:35:22;;;;;;;12.75;8.75;;;18.60;99.90;;;;;;5075978;28;20086;-71
2022/08/19 08:37:49;;;;;;;17.45;9.00;;;18.60;99.90;;;;;;5075987;28;20040;-74
2022/08/19 08:40:37;;;;;;;11.93;9.10;;;18.70;99.90;;;;;;5075648;28;20041;-73
2022/08/19 08:43:23;;;;;;;12.60;8.55;;;18.70;99.90;;;;;;5064890;28;20048;-74
2022/08/19 08:46:09;;;;;;;11.25;7.50;;;18.80;99.90;;;;;;5052118;28;20055;-74
2022/08/19 08:48:51;;;;;;;11.63;7.68;;;19.00;99.90;;;;;;5052952;28;20045;-74
2022/08/19 08:51:35;;;;;;;11.30;8.13;;;19.20;99.90;;;;;;5053819;28;20480;-73
2022/08/19 08:54:04;;;;;;;13.45;8.48;;;19.10;99.90;;;;;;5053557;28;20048;-73
2022/08/19 08:56:31;;;;;;;12.25;8.05;;;19.10;99.90;;;;;;5051488;28;20037;-72
2022/08/19 08:59:09;;;;;;;12.15;7.72;;;19.30;99.90;;;;;;5050089;28;20086;-73
2022/08/19 09:01:35;;;;;;;12.27;7.85;;;19.70;99.90;;;;;;5051654;28;20041;-72
2022/08/19 09:04:05;;;;;;;12.90;6.95;;;19.60;99.90;;;;;;5053198;28;20037;-73
2022/08/19 09:06:40;;;;;;;10.68;7.63;;;19.80;99.90;;;;;;5053562;28;20049;-71
2022/08/19 09:09:49;;;;;;;8.85;6.57;;;19.80;99.90;;;;;;5070263;28;20048;-70
2022/08/19 09:12:47;;;;;;;13.57;7.05;;;19.60;99.90;;;;;;5027484;28;20061;-71
2022/08/19 09:15:16;;;;;;;12.55;6.32;;;19.70;99.90;;;;;;5017612;28;20092;-71
2022/08/19 09:17:41;;;;;;;10.25;6.80;;;19.80;99.90;;;;;;5046178;28;20052;-71
2022/08/19 09:20:10;;;;;;;10.20;6.22;;;19.80;99.90;;;;;;5053191;28;20049;-72
2022/08/19 09:22:38;;;;;;;10.15;5.97;;;19.90;99.90;;;;;;5051389;28;20052;-70
2022/08/19 09:25:06;;;;;;;7.90;5.53;;;20.00;99.90;;;;;;5051448;28;20047;-67
2022/08/19 09:27:33;;;;;;;9.40;6.28;;;20.20;99.90;;;;;;5069811;28;20124;-74
2022/08/19 09:29:58;;;;;;;7.65;5.60;;;20.20;99.90;;;;;;5071911;28;20504;-72
2022/08/19 09:32:27;;;;;;;11.38;5.82;;;19.90;99.90;;;;;;5072470;28;20064;-70
2022/08/19 09:34:57;;;;;;;7.53;5.20;;;20.00;99.90;;;;;;5071406;28;20048;-73
2022/08/19 09:37:24;;;;;;;7.93;5.45;;;20.10;99.90;;;;;;5071227;28;20055;-73
2022/08/19 09:39:50;;;;;;;7.63;5.07;;;20.20;99.90;;;;;;5071078;28;20120;-72
2022/08/19 09:42:16;;;;;;;7.07;5.13;;;20.10;99.90;;;;;;5027094;28;1260894;-73
2022/08/19 09:44:43;;;;;;;7.13;4.95;;;20.20;99.90;;;;;;5070831;28;20036;-73
2022/08/19 09:47:11;;;;;;;7.88;5.15;;;20.30;99.90;;;;;;5071927;28;20042;-73
2022/08/19 09:49:39;;;;;;;5.80;5.03;;;20.50;99.90;;;;;;5071925;28;20046;-73
2022/08/19 09:52:07;;;;;;;7.72;5.28;;;20.60;99.90;;;;;;5071368;28;20519;-70
2022/08/19 09:54:34;;;;;;;6.50;5.10;;;20.70;99.90;;;;;;5072357;28;20039;-70
2022/08/19 09:57:00;;;;;;;8.95;5.20;;;20.70;99.90;;;;;;5073242;28;20380;-72
2022/08/19 09:59:27;;;;;;;6.28;4.43;;;20.80;99.90;;;;;;5070481;28;20407;-73
2022/08/19 10:01:53;;;;;;;6.47;4.70;;;20.70;99.90;;;;;;5071889;28;20044;-73
2022/08/19 10:04:22;;;;;;;12.18;6.07;;;20.70;99.90;;;;;;5071022;28;20036;-72
2022/08/19 10:06:51;;;;;;;7.55;5.38;;;20.60;99.90;;;;;;5072484;28;20580;-72
2022/08/19 10:09:17;;;;;;;7.45;5.05;;;20.60;99.90;;;;;;5070711;28;20770;-72
2022/08/19 10:11:49;;;;;;;7.22;4.68;;;20.60;99.90;;;;;;5071090;28;20486;-73
2022/08/19 10:14:16;;;;;;;8.20;5.15;;;20.60;99.90;;;;;;5073422;28;20403;-74
2022/08/19 10:16:42;;;;;;;6.10;4.55;;;20.80;99.90;;;;;;5071689;28;20040;-74
2022/08/19 10:19:09;;;;;;;6.30;4.05;;;;;;;;;;5070142;28;20070;-72
2022/08/19 10:21:35;;;;;;;5.78;4.57;;;21.00;99.90;;;;;;5071500;28;20056;-69
2022/08/19 10:24:05;;;;;;;11.10;4.22;;;21.10;99.90;;;;;;5057500;28;20075;-72
2022/08/19 10:26:33;;;;;;;8.15;5.20;;;;;;;;;;5051367;28;20055;-70
2022/08/19 10:28:59;;;;;;;9.20;5.07;;;21.50;99.90;;;;;;5052237;28;20544;-69
2022/08/19 10:31:28;;;;;;;8.23;4.82;;;22.00;99.90;;;;;;5053416;28;20064;-71
2022/08/19 10:33:57;;;;;;;7.15;4.45;;;22.20;99.90;;;;;;5059994;28;20133;-69
2022/08/19 10:36:35;;;;;;;5.95;3.90;;;22.20;99.90;;;;;;5055973;28;20037;-71
2022/08/19 10:39:06;;;;;;;5.50;4.00;;;22.00;99.90;;;;;;5051477;28;20044;-68
2022/08/19 10:41:34;;;;;;;10.02;4.53;;;23.20;99.90;;;;;;5051438;28;20419;-70
2022/08/19 10:44:04;;;;;;;8.98;3.95;;;23.30;99.90;;;;;;5051352;28;20040;-70
2022/08/19 10:46:32;;;;;;;4.97;3.58;;;23.50;99.90;;;;;;5051352;28;20194;-67
2022/08/19 10:49:00;;;;;;;5.25;3.90;;;23.60;99.90;;;;;;5049227;28;20128;-71
2022/08/19 10:54:12;;;;;;;5.88;3.38;;;23.60;99.90;;;;;;5051936;28;20048;-70
2022/08/19 10:56:52;;;;;;;4.43;3.25;;;23.60;99.90;;;;;;5049273;28;20045;-67
2022/08/19 10:59:27;;;;;;;4.47;3.15;;;23.80;99.90;;;;;;5050800;28;20150;-68
2022/08/19 11:01:58;;;;;;;5.20;3.55;;;23.60;99.90;;;;;;5051441;28;20516;-66
2022/08/19 11:04:29;;;;;;;4.80;3.72;;;23.30;99.90;;;;;;5050796;28;20515;-67
2022/08/19 11:07:02;;;;;;;5.63;3.05;;;23.70;99.90;;;;;;5057990;28;20159;-71
2022/08/19 11:09:32;;;;;;;5.55;3.70;;;24.10;99.90;;;;;;5061456;28;20064;-73
2022/08/19 11:11:58;;;;;;;4.78;3.20;;;23.60;99.90;;;;;;5060275;28;20592;-71
2022/08/19 11:14:27;;;;;;;4.88;3.20;;;23.00;99.90;;;;;;5070170;28;20028;-69
2022/08/19 11:17:01;;;;;;;4.18;3.00;;;22.90;99.90;;;;;;5067563;28;20051;-70
2022/08/19 11:19:29;;;;;;;4.07;3.08;;;22.80;99.90;;;;;;5068665;28;20040;-71
2022/08/19 11:21:54;;;;;;;6.82;3.55;;;23.40;99.90;;;;;;5052767;28;20503;-71
2022/08/19 11:24:24;;;;;;;6.25;3.45;;;23.30;99.90;;;;;;5066711;28;20051;-69
2022/08/19 11:26:58;;;;;;;4.82;3.55;;;23.90;99.90;;;;;;5062599;28;20033;-70
2022/08/19 11:29:25;;;;;;;4.20;3.22;;;24.20;99.90;;;;;;5064571;28;20146;-69
2022/08/19 11:31:51;;;;;;;4.88;3.45;;;24.20;99.90;;;;;;5067948;28;20519;-70
2022/08/19 11:34:21;;;;;;;4.28;2.95;;;23.80;99.90;;;;;;5069614;28;20036;-71
2022/08/19 11:36:50;;;;;;;7.78;3.03;;;23.80;99.90;;;;;;5070304;28;20395;-71
2022/08/19 11:39:19;;;;;;;4.25;3.05;;;23.80;99.90;;;;;;5069763;28;20039;-71
2022/08/19 11:41:45;;;;;;;5.90;2.80;;;24.00;99.90;;;;;;5069851;28;20052;-71
2022/08/19 11:44:13;;;;;;;6.22;2.97;;;24.00;99.90;;;;;;5070167;28;20071;-71
2022/08/19 11:46:39;;;;;;;4.70;2.83;;;23.80;99.90;;;;;;5070494;28;20101;-71
2022/08/19 11:49:07;;;;;;;5.75;2.97;;;23.30;99.90;;;;;;5069699;28;20123;-71
2022/08/19 11:51:33;;;;;;;3.35;3.00;;;23.70;99.90;;;;;;5071397;28;20056;-71
2022/08/19 11:54:01;;;;;;;5.55;3.65;;;24.20;99.90;;;;;;5071387;28;20488;-71
2022/08/19 11:56:28;;;;;;;3.70;2.60;;;24.00;99.90;;;;;;5068820;28;20040;-70
2022/08/19 11:58:56;;;;;;;4.50;2.97;;;24.80;99.90;;;;;;5068892;28;20045;-71
2022/08/19 12:01:24;;;;;;;4.13;2.72;;;25.00;99.90;;;;;;5069894;28;20086;-70
2022/08/19 12:03:52;;;;;;;2.80;2.60;;;24.80;99.90;;;;;;5070180;28;20033;-69
2022/08/19 12:06:28;;;;;;;4.20;3.22;;;25.20;99.90;;;;;;5071887;28;20036;-69
2022/08/19 12:08:55;;;;;;;3.70;2.65;;;25.50;99.90;;;;;;5069735;28;20036;-70
2022/08/19 12:11:21;;;;;;;6.57;2.78;;;25.40;99.90;;;;;;5065308;28;20044;-70
2022/08/19 12:13:47;;;;;;;2.65;2.15;;;25.70;99.90;;;;;;5069640;28;20515;-69
2022/08/19 12:16:21;;;;;;;7.55;2.63;;;26.00;99.90;;;;;;5069274;28;20041;-69
2022/08/19 12:18:47;;;;;;;4.53;2.55;;;26.20;99.90;;;;;;5069555;28;20048;-69
2022/08/19 12:21:17;;;;;;;5.10;2.60;;;25.70;99.70;;;;;;5068574;28;20449;-69
2022/08/19 12:23:45;;;;;;;3.35;2.55;;;25.30;99.00;;;;;;5069720;28;20046;-67
2022/08/19 12:26:12;;;;;;;2.97;2.30;;;25.40;99.90;;;;;;5069598;28;20045;-67
2022/08/19 12:28:38;;;;;;;4.63;2.60;;;25.10;99.90;;;;;;5069969;28;20537;-68
2022/08/19 12:31:05;;;;;;;3.13;2.25;;;24.10;99.90;;;;;;5069212;28;20415;-67
2022/08/19 12:33:31;;;;;;;4.05;3.00;;;23.90;99.90;;;;;;5068635;28;20051;-66
2022/08/19 12:36:02;;;;;;;3.50;2.83;;;24.10;99.90;;;;;;5073458;28;20214;-67
2022/08/19 12:38:28;;;;;;;4.20;2.80;;;24.80;99.90;;;;;;5073145;28;20037;-71
2022/08/19 12:40:54;;;;;;;4.63;2.17;;;25.10;99.90;;;;;;5074012;28;20048;-70
2022/08/19 12:43:20;;;;;;;7.20;2.53;;;24.90;99.90;;;;;;5072955;28;20072;-68
2022/08/19 12:45:46;;;;;;;3.63;2.60;;;25.30;99.70;;;;;;5072749;28;20379;-70
2022/08/19 12:48:12;;;;;;;3.05;2.45;;;25.00;98.40;;;;;;5072932;28;20044;-70
2022/08/19 12:50:43;;;;;;;4.38;2.08;;;24.60;99.90;;;;;;5073162;28;20074;-70
2022/08/19 12:53:08;;;;;;;;;;;24.50;99.90;;;;;;5073570;28;20040;-70
2022/08/19 12:55:34;;;;;;;4.90;2.70;;;24.20;99.10;;;;;;5056941;28;20348;-69
2022/08/19 12:58:03;;;;;;;3.55;1.92;;;24.30;99.90;;;;;;5053809;28;20037;-69
2022/08/19 13:00:30;;;;;;;4.18;2.13;;;24.00;99.00;;;;;;5054947;28;20055;-69
2022/08/19 13:02:56;;;;;;;2.28;1.70;;;24.50;99.40;;;;;;5053710;28;20512;-67
2022/08/19 13:05:26;;;;;;;2.65;1.90;;;24.80;99.00;;;;;;5052954;28;20040;-69
2022/08/19 13:07:57;;;;;;;2.22;1.75;;;24.90;97.40;;;;;;5053274;28;20060;-68
2022/08/19 13:10:27;;;;;;;5.63;2.28;;;24.70;98.80;;;;;;5053018;28;20078;-67
2022/08/19 13:12:53;;;;;;;;;;;25.00;99.30;;;;;;5054042;28;20048;-70
2022/08/19 13:15:20;;;;;;;1.63;1.33;;;24.20;98.30;;;;;;5053119;28;20066;-70